sensor_id;sensor_type;location;lat;lon;timestamp;temperature;humidity
56046;DHT22;41913;51.030;3.706;2024-02-23T00:00:59;19.40;90.70
56046;DHT22;41913;51.030;3.706;2024-02-23T00:03:26;19.40;90.70
56046;DHT22;41913;51.030;3.706;2024-02-23T00:05:52;19.40;90.80
56046;DHT22;41913;51.030;3.706;2024-02-23T00:08:18;19.40;90.70
56046;DHT22;41913;51.030;3.706;2024-02-23T00:10:44;19.40;90.80
56046;DHT22;41913;51.030;3.706;2024-02-23T00:13:10;19.40;90.80
56046;DHT22;41913;51.030;3.706;2024-02-23T00:15:36;19.40;90.70
56046;DHT22;41913;51.030;3.706;2024-02-23T00:18:03;19.30;90.60
56046;DHT22;41913;51.030;3.706;2024-02-23T00:20:30;19.30;90.70
56046;DHT22;41913;51.030;3.706;2024-02-23T00:22:56;19.30;90.70
56046;DHT22;41913;51.030;3.706;2024-02-23T00:25:22;19.30;90.60
56046;DHT22;41913;51.030;3.706;2024-02-23T00:27:49;19.30;90.60
56046;DHT22;41913;51.030;3.706;2024-02-23T00:30:15;19.20;90.60
56046;DHT22;41913;51.030;3.706;2024-02-23T00:32:42;19.20;90.50
56046;DHT22;41913;51.030;3.706;2024-02-23T00:35:08;19.20;90.50
56046;DHT22;41913;51.030;3.706;2024-02-23T00:37:34;19.20;90.50
56046;DHT22;41913;51.030;3.706;2024-02-23T00:40:04;19.20;90.40
56046;DHT22;41913;51.030;3.706;2024-02-23T00:42:31;19.20;90.50
56046;DHT22;41913;51.030;3.706;2024-02-23T00:44:58;19.10;90.30
56046;DHT22;41913;51.030;3.706;2024-02-23T00:47:23;19.10;90.30
56046;DHT22;41913;51.030;3.706;2024-02-23T00:49:49;19.10;90.40
56046;DHT22;41913;51.030;3.706;2024-02-23T00:52:16;19.10;90.40
56046;DHT22;41913;51.030;3.706;2024-02-23T00:54:42;19.10;90.30
56046;DHT22;41913;51.030;3.706;2024-02-23T00:57:07;19.10;90.30
56046;DHT22;41913;51.030;3.706;2024-02-23T00:59:33;19.10;90.30
56046;DHT22;41913;51.030;3.706;2024-02-23T01:02:00;19.10;90.20
56046;DHT22;41913;51.030;3.706;2024-02-23T01:04:26;19.00;90.10
56046;DHT22;41913;51.030;3.706;2024-02-23T01:06:52;19.00;90.10
56046;DHT22;41913;51.030;3.706;2024-02-23T01:09:18;19.00;90.10
56046;DHT22;41913;51.030;3.706;2024-02-23T01:11:49;19.00;90.10
56046;DHT22;41913;51.030;3.706;2024-02-23T01:14:15;19.00;90.10
56046;DHT22;41913;51.030;3.706;2024-02-23T01:16:41;19.00;90.00
56046;DHT22;41913;51.030;3.706;2024-02-23T01:19:07;19.00;90.10
56046;DHT22;41913;51.030;3.706;2024-02-23T01:21:34;19.00;90.00
56046;DHT22;41913;51.030;3.706;2024-02-23T01:23:59;19.00;90.00
56046;DHT22;41913;51.030;3.706;2024-02-23T01:26:26;19.00;90.00
56046;DHT22;41913;51.030;3.706;2024-02-23T01:28:54;19.00;90.00
56046;DHT22;41913;51.030;3.706;2024-02-23T01:31:21;18.90;89.90
56046;DHT22;41913;51.030;3.706;2024-02-23T01:33:46;19.00;89.80
56046;DHT22;41913;51.030;3.706;2024-02-23T01:36:12;18.90;89.60
56046;DHT22;41913;51.030;3.706;2024-02-23T01:38:38;19.00;89.60
56046;DHT22;41913;51.030;3.706;2024-02-23T01:41:04;18.90;89.60
56046;DHT22;41913;51.030;3.706;2024-02-23T01:43:30;19.00;89.60
56046;DHT22;41913;51.030;3.706;2024-02-23T01:45:56;18.90;89.30
56046;DHT22;41913;51.030;3.706;2024-02-23T01:48:22;18.90;89.40
56046;DHT22;41913;51.030;3.706;2024-02-23T01:50:48;18.90;89.30
56046;DHT22;41913;51.030;3.706;2024-02-23T01:53:15;18.90;89.20
56046;DHT22;41913;51.030;3.706;2024-02-23T01:55:41;18.90;89.10
56046;DHT22;41913;51.030;3.706;2024-02-23T01:58:07;18.90;89.10
56046;DHT22;41913;51.030;3.706;2024-02-23T02:00:34;18.90;89.00
56046;DHT22;41913;51.030;3.706;2024-02-23T02:03:01;18.90;88.90
56046;DHT22;41913;51.030;3.706;2024-02-23T02:05:27;18.90;88.90
56046;DHT22;41913;51.030;3.706;2024-02-23T02:07:55;18.80;88.80
56046;DHT22;41913;51.030;3.706;2024-02-23T02:10:25;18.90;88.80
56046;DHT22;41913;51.030;3.706;2024-02-23T02:12:52;18.80;88.70
56046;DHT22;41913;51.030;3.706;2024-02-23T02:15:18;18.80;88.60
56046;DHT22;41913;51.030;3.706;2024-02-23T02:17:43;18.80;89.00
56046;DHT22;41913;51.030;3.706;2024-02-23T02:20:13;18.80;88.40
56046;DHT22;41913;51.030;3.706;2024-02-23T02:22:39;18.90;88.30
56046;DHT22;41913;51.030;3.706;2024-02-23T02:25:06;18.80;88.20
56046;DHT22;41913;51.030;3.706;2024-02-23T02:27:33;18.90;88.10
56046;DHT22;41913;51.030;3.706;2024-02-23T02:29:59;18.80;88.00
56046;DHT22;41913;51.030;3.706;2024-02-23T02:32:26;18.80;87.90
56046;DHT22;41913;51.030;3.706;2024-02-23T02:34:51;18.80;87.80
56046;DHT22;41913;51.030;3.706;2024-02-23T02:37:18;18.80;87.80
56046;DHT22;41913;51.030;3.706;2024-02-23T02:39:44;18.80;87.80
56046;DHT22;41913;51.030;3.706;2024-02-23T02:42:10;18.80;87.60
56046;DHT22;41913;51.030;3.706;2024-02-23T02:44:36;18.80;87.60
56046;DHT22;41913;51.030;3.706;2024-02-23T02:47:01;18.80;87.50
56046;DHT22;41913;51.030;3.706;2024-02-23T02:49:27;18.80;87.60
56046;DHT22;41913;51.030;3.706;2024-02-23T02:51:53;18.80;87.50
56046;DHT22;41913;51.030;3.706;2024-02-23T02:54:19;18.80;87.40
56046;DHT22;41913;51.030;3.706;2024-02-23T02:56:47;18.80;87.30
56046;DHT22;41913;51.030;3.706;2024-02-23T02:59:14;18.70;87.30
56046;DHT22;41913;51.030;3.706;2024-02-23T03:01:40;18.70;87.20
56046;DHT22;41913;51.030;3.706;2024-02-23T03:04:07;18.80;87.20
56046;DHT22;41913;51.030;3.706;2024-02-23T03:06:34;18.80;87.00
56046;DHT22;41913;51.030;3.706;2024-02-23T03:08:59;18.70;86.90
56046;DHT22;41913;51.030;3.706;2024-02-23T03:11:25;18.70;86.90
56046;DHT22;41913;51.030;3.706;2024-02-23T03:13:51;18.70;86.90
56046;DHT22;41913;51.030;3.706;2024-02-23T03:16:18;18.70;86.90
56046;DHT22;41913;51.030;3.706;2024-02-23T03:18:45;18.70;86.80
56046;DHT22;41913;51.030;3.706;2024-02-23T03:21:11;18.70;86.60
56046;DHT22;41913;51.030;3.706;2024-02-23T03:23:37;18.70;86.40
56046;DHT22;41913;51.030;3.706;2024-02-23T03:26:03;18.70;86.30
56046;DHT22;41913;51.030;3.706;2024-02-23T03:28:29;18.70;86.30
56046;DHT22;41913;51.030;3.706;2024-02-23T03:30:55;18.70;86.40
56046;DHT22;41913;51.030;3.706;2024-02-23T03:33:21;18.70;86.20
56046;DHT22;41913;51.030;3.706;2024-02-23T03:35:46;18.70;86.10
56046;DHT22;41913;51.030;3.706;2024-02-23T03:38:12;18.70;86.00
56046;DHT22;41913;51.030;3.706;2024-02-23T03:40:38;18.70;85.90
56046;DHT22;41913;51.030;3.706;2024-02-23T03:43:04;18.70;86.00
56046;DHT22;41913;51.030;3.706;2024-02-23T03:45:31;18.70;86.10
56046;DHT22;41913;51.030;3.706;2024-02-23T03:47:58;18.70;86.00
56046;DHT22;41913;51.030;3.706;2024-02-23T03:50:24;18.70;85.90
56046;DHT22;41913;51.030;3.706;2024-02-23T03:52:50;18.60;85.80
56046;DHT22;41913;51.030;3.706;2024-02-23T03:55:16;18.60;85.70
56046;DHT22;41913;51.030;3.706;2024-02-23T03:57:42;18.60;85.80
56046;DHT22;41913;51.030;3.706;2024-02-23T04:00:08;18.60;85.80
56046;DHT22;41913;51.030;3.706;2024-02-23T04:02:34;18.60;85.70
56046;DHT22;41913;51.030;3.706;2024-02-23T04:05:00;18.60;86.20
56046;DHT22;41913;51.030;3.706;2024-02-23T04:07:26;18.60;85.70
56046;DHT22;41913;51.030;3.706;2024-02-23T04:09:52;18.60;86.10
56046;DHT22;41913;51.030;3.706;2024-02-23T04:12:20;18.60;85.50
56046;DHT22;41913;51.030;3.706;2024-02-23T04:14:46;18.60;85.50
56046;DHT22;41913;51.030;3.706;2024-02-23T04:17:12;18.60;85.30
56046;DHT22;41913;51.030;3.706;2024-02-23T04:19:39;18.50;85.30
56046;DHT22;41913;51.030;3.706;2024-02-23T04:22:06;18.50;85.30
56046;DHT22;41913;51.030;3.706;2024-02-23T04:24:37;18.50;85.30
56046;DHT22;41913;51.030;3.706;2024-02-23T04:27:05;18.50;85.20
56046;DHT22;41913;51.030;3.706;2024-02-23T04:29:30;18.50;85.20
56046;DHT22;41913;51.030;3.706;2024-02-23T04:31:58;18.50;85.10
56046;DHT22;41913;51.030;3.706;2024-02-23T04:34:23;18.50;85.10
56046;DHT22;41913;51.030;3.706;2024-02-23T04:36:49;18.50;84.90
56046;DHT22;41913;51.030;3.706;2024-02-23T04:39:15;18.50;84.90
56046;DHT22;41913;51.030;3.706;2024-02-23T04:41:41;18.40;84.90
56046;DHT22;41913;51.030;3.706;2024-02-23T04:44:07;18.40;85.00
56046;DHT22;41913;51.030;3.706;2024-02-23T04:46:32;18.50;84.90
56046;DHT22;41913;51.030;3.706;2024-02-23T04:49:00;18.40;84.70
56046;DHT22;41913;51.030;3.706;2024-02-23T04:51:26;18.40;84.70
56046;DHT22;41913;51.030;3.706;2024-02-23T04:53:52;18.40;84.60
56046;DHT22;41913;51.030;3.706;2024-02-23T04:56:18;18.40;84.70
56046;DHT22;41913;51.030;3.706;2024-02-23T04:58:44;18.40;84.70
56046;DHT22;41913;51.030;3.706;2024-02-23T05:01:10;18.40;84.60
56046;DHT22;41913;51.030;3.706;2024-02-23T05:03:36;18.40;84.50
56046;DHT22;41913;51.030;3.706;2024-02-23T05:06:03;18.40;84.50
56046;DHT22;41913;51.030;3.706;2024-02-23T05:08:29;18.30;84.40
56046;DHT22;41913;51.030;3.706;2024-02-23T05:10:59;18.30;84.50
56046;DHT22;41913;51.030;3.706;2024-02-23T05:13:24;18.30;84.90
56046;DHT22;41913;51.030;3.706;2024-02-23T05:15:50;18.30;84.30
56046;DHT22;41913;51.030;3.706;2024-02-23T05:18:16;18.30;84.30
56046;DHT22;41913;51.030;3.706;2024-02-23T05:20:42;18.30;84.30
56046;DHT22;41913;51.030;3.706;2024-02-23T05:23:08;18.30;84.30
56046;DHT22;41913;51.030;3.706;2024-02-23T05:25:34;18.30;84.30
56046;DHT22;41913;51.030;3.706;2024-02-23T05:28:00;18.30;84.40
56046;DHT22;41913;51.030;3.706;2024-02-23T05:30:26;18.30;84.20
56046;DHT22;41913;51.030;3.706;2024-02-23T05:32:57;18.30;84.30
56046;DHT22;41913;51.030;3.706;2024-02-23T05:35:24;18.20;84.20
56046;DHT22;41913;51.030;3.706;2024-02-23T05:37:50;18.20;84.20
56046;DHT22;41913;51.030;3.706;2024-02-23T05:40:16;18.20;84.10
56046;DHT22;41913;51.030;3.706;2024-02-23T05:42:42;18.20;84.00
56046;DHT22;41913;51.030;3.706;2024-02-23T05:45:08;18.20;83.60
56046;DHT22;41913;51.030;3.706;2024-02-23T05:47:41;18.20;83.70
56046;DHT22;41913;51.030;3.706;2024-02-23T05:50:08;18.20;83.90
56046;DHT22;41913;51.030;3.706;2024-02-23T05:52:37;18.20;83.90
56046;DHT22;41913;51.030;3.706;2024-02-23T05:55:03;18.10;84.00
56046;DHT22;41913;51.030;3.706;2024-02-23T05:57:29;18.10;83.90
56046;DHT22;41913;51.030;3.706;2024-02-23T05:59:55;18.10;83.80
56046;DHT22;41913;51.030;3.706;2024-02-23T06:02:22;18.10;83.90
56046;DHT22;41913;51.030;3.706;2024-02-23T06:04:48;18.10;83.90
56046;DHT22;41913;51.030;3.706;2024-02-23T06:07:14;18.10;84.00
56046;DHT22;41913;51.030;3.706;2024-02-23T06:09:41;18.00;83.80
56046;DHT22;41913;51.030;3.706;2024-02-23T06:12:07;18.10;84.20
56046;DHT22;41913;51.030;3.706;2024-02-23T06:14:34;18.00;84.30
56046;DHT22;41913;51.030;3.706;2024-02-23T06:17:00;18.10;85.30
56046;DHT22;41913;51.030;3.706;2024-02-23T06:19:26;18.10;86.20
56046;DHT22;41913;51.030;3.706;2024-02-23T06:21:52;18.20;86.30
56046;DHT22;41913;51.030;3.706;2024-02-23T06:24:18;18.30;85.20
56046;DHT22;41913;51.030;3.706;2024-02-23T06:26:45;18.40;84.40
56046;DHT22;41913;51.030;3.706;2024-02-23T06:29:12;18.40;83.20
56046;DHT22;41913;51.030;3.706;2024-02-23T06:31:41;18.50;84.50
56046;DHT22;41913;51.030;3.706;2024-02-23T06:34:07;18.70;85.20
56046;DHT22;41913;51.030;3.706;2024-02-23T06:36:33;18.70;84.70
56046;DHT22;41913;51.030;3.706;2024-02-23T06:38:59;18.80;85.20
56046;DHT22;41913;51.030;3.706;2024-02-23T06:41:25;18.90;85.00
56046;DHT22;41913;51.030;3.706;2024-02-23T06:43:52;19.10;82.30
56046;DHT22;41913;51.030;3.706;2024-02-23T06:46:21;19.10;80.90
56046;DHT22;41913;51.030;3.706;2024-02-23T06:48:47;19.20;80.60
56046;DHT22;41913;51.030;3.706;2024-02-23T06:51:13;19.30;80.10
56046;DHT22;41913;51.030;3.706;2024-02-23T06:53:39;19.40;80.30
56046;DHT22;41913;51.030;3.706;2024-02-23T06:56:05;19.40;80.80
56046;DHT22;41913;51.030;3.706;2024-02-23T06:58:31;19.40;81.60
56046;DHT22;41913;51.030;3.706;2024-02-23T07:00:57;19.50;82.30
56046;DHT22;41913;51.030;3.706;2024-02-23T07:03:23;19.50;83.20
56046;DHT22;41913;51.030;3.706;2024-02-23T07:05:49;19.50;83.60
56046;DHT22;41913;51.030;3.706;2024-02-23T07:08:15;19.50;83.80
56046;DHT22;41913;51.030;3.706;2024-02-23T07:10:42;19.50;83.80
56046;DHT22;41913;51.030;3.706;2024-02-23T07:13:10;19.60;83.50
56046;DHT22;41913;51.030;3.706;2024-02-23T07:15:36;19.60;83.00
56046;DHT22;41913;51.030;3.706;2024-02-23T07:18:03;19.50;82.70
56046;DHT22;41913;51.030;3.706;2024-02-23T07:20:28;19.60;83.20
56046;DHT22;41913;51.030;3.706;2024-02-23T07:22:54;19.60;83.50
56046;DHT22;41913;51.030;3.706;2024-02-23T07:25:20;19.60;84.20
56046;DHT22;41913;51.030;3.706;2024-02-23T07:27:47;19.60;84.00
56046;DHT22;41913;51.030;3.706;2024-02-23T07:30:15;19.60;84.40
56046;DHT22;41913;51.030;3.706;2024-02-23T07:32:42;19.60;84.40
56046;DHT22;41913;51.030;3.706;2024-02-23T07:35:09;19.60;84.40
56046;DHT22;41913;51.030;3.706;2024-02-23T07:37:34;19.60;84.80
56046;DHT22;41913;51.030;3.706;2024-02-23T07:40:00;19.60;84.60
56046;DHT22;41913;51.030;3.706;2024-02-23T07:42:26;19.60;84.70
56046;DHT22;41913;51.030;3.706;2024-02-23T07:44:52;19.60;84.50
56046;DHT22;41913;51.030;3.706;2024-02-23T07:47:18;19.60;85.00
56046;DHT22;41913;51.030;3.706;2024-02-23T07:49:44;19.70;84.60
56046;DHT22;41913;51.030;3.706;2024-02-23T07:52:10;19.70;84.70
56046;DHT22;41913;51.030;3.706;2024-02-23T07:54:36;19.60;85.50
56046;DHT22;41913;51.030;3.706;2024-02-23T07:57:01;19.60;86.00
56046;DHT22;41913;51.030;3.706;2024-02-23T07:59:29;19.50;86.20
56046;DHT22;41913;51.030;3.706;2024-02-23T08:01:55;19.50;86.30
56046;DHT22;41913;51.030;3.706;2024-02-23T08:04:21;19.40;86.50
56046;DHT22;41913;51.030;3.706;2024-02-23T08:06:47;19.40;86.50
56046;DHT22;41913;51.030;3.706;2024-02-23T08:09:14;19.40;86.70
56046;DHT22;41913;51.030;3.706;2024-02-23T08:11:40;19.40;86.70
56046;DHT22;41913;51.030;3.706;2024-02-23T08:14:06;19.40;86.70
56046;DHT22;41913;51.030;3.706;2024-02-23T08:16:32;19.40;86.30
56046;DHT22;41913;51.030;3.706;2024-02-23T08:18:58;19.40;86.20
56046;DHT22;41913;51.030;3.706;2024-02-23T08:21:25;19.40;86.60
56046;DHT22;41913;51.030;3.706;2024-02-23T08:23:52;19.40;86.30
56046;DHT22;41913;51.030;3.706;2024-02-23T08:26:18;19.30;85.30
56046;DHT22;41913;51.030;3.706;2024-02-23T08:28:44;19.30;85.10
56046;DHT22;41913;51.030;3.706;2024-02-23T08:31:09;19.30;85.30
56046;DHT22;41913;51.030;3.706;2024-02-23T08:33:35;19.30;85.30
56046;DHT22;41913;51.030;3.706;2024-02-23T08:36:01;19.20;85.00
56046;DHT22;41913;51.030;3.706;2024-02-23T08:38:32;19.20;84.90
56046;DHT22;41913;51.030;3.706;2024-02-23T08:40:58;19.20;85.00
56046;DHT22;41913;51.030;3.706;2024-02-23T08:43:24;19.20;84.60
56046;DHT22;41913;51.030;3.706;2024-02-23T08:45:50;19.20;84.60
56046;DHT22;41913;51.030;3.706;2024-02-23T08:48:16;19.10;84.50
56046;DHT22;41913;51.030;3.706;2024-02-23T08:50:43;19.10;84.70
56046;DHT22;41913;51.030;3.706;2024-02-23T08:53:10;19.10;84.70
56046;DHT22;41913;51.030;3.706;2024-02-23T08:55:36;19.10;84.60
56046;DHT22;41913;51.030;3.706;2024-02-23T08:58:02;19.00;84.60
56046;DHT22;41913;51.030;3.706;2024-02-23T09:00:28;19.00;84.60
56046;DHT22;41913;51.030;3.706;2024-02-23T09:02:54;19.00;84.40
56046;DHT22;41913;51.030;3.706;2024-02-23T09:05:19;19.00;84.50
56046;DHT22;41913;51.030;3.706;2024-02-23T09:07:46;19.00;84.50
56046;DHT22;41913;51.030;3.706;2024-02-23T09:10:12;19.00;84.40
56046;DHT22;41913;51.030;3.706;2024-02-23T09:12:38;19.00;84.30
56046;DHT22;41913;51.030;3.706;2024-02-23T09:15:04;19.00;84.30
56046;DHT22;41913;51.030;3.706;2024-02-23T09:17:30;18.90;84.20
56046;DHT22;41913;51.030;3.706;2024-02-23T09:19:56;19.00;84.20
56046;DHT22;41913;51.030;3.706;2024-02-23T09:22:24;18.90;84.00
56046;DHT22;41913;51.030;3.706;2024-02-23T09:24:50;18.90;84.00
56046;DHT22;41913;51.030;3.706;2024-02-23T09:27:19;18.90;84.00
56046;DHT22;41913;51.030;3.706;2024-02-23T09:29:45;18.90;83.90
56046;DHT22;41913;51.030;3.706;2024-02-23T09:32:11;18.90;83.80
56046;DHT22;41913;51.030;3.706;2024-02-23T09:34:39;18.80;83.80
56046;DHT22;41913;51.030;3.706;2024-02-23T09:37:05;18.80;83.70
56046;DHT22;41913;51.030;3.706;2024-02-23T09:39:30;18.80;83.60
56046;DHT22;41913;51.030;3.706;2024-02-23T09:41:56;18.80;83.30
56046;DHT22;41913;51.030;3.706;2024-02-23T09:44:29;18.80;83.10
56046;DHT22;41913;51.030;3.706;2024-02-23T09:47:01;18.70;83.00
56046;DHT22;41913;51.030;3.706;2024-02-23T09:49:37;18.70;82.90
56046;DHT22;41913;51.030;3.706;2024-02-23T09:52:07;18.70;82.80
56046;DHT22;41913;51.030;3.706;2024-02-23T09:54:33;18.70;82.70
56046;DHT22;41913;51.030;3.706;2024-02-23T09:57:01;18.70;82.60
56046;DHT22;41913;51.030;3.706;2024-02-23T09:59:29;18.70;82.40
56046;DHT22;41913;51.030;3.706;2024-02-23T10:01:56;18.70;82.30
56046;DHT22;41913;51.030;3.706;2024-02-23T10:04:24;18.70;82.20
56046;DHT22;41913;51.030;3.706;2024-02-23T10:06:52;18.70;82.20
56046;DHT22;41913;51.030;3.706;2024-02-23T10:09:18;18.70;82.20
56046;DHT22;41913;51.030;3.706;2024-02-23T10:11:52;18.60;82.00
56046;DHT22;41913;51.030;3.706;2024-02-23T10:14:18;18.60;81.90
56046;DHT22;41913;51.030;3.706;2024-02-23T10:16:44;18.60;82.00
56046;DHT22;41913;51.030;3.706;2024-02-23T10:19:11;18.60;82.00
56046;DHT22;41913;51.030;3.706;2024-02-23T10:21:38;18.60;81.80
56046;DHT22;41913;51.030;3.706;2024-02-23T10:24:05;18.60;81.80
56046;DHT22;41913;51.030;3.706;2024-02-23T10:26:31;18.60;81.80
56046;DHT22;41913;51.030;3.706;2024-02-23T10:28:57;18.50;81.70
56046;DHT22;41913;51.030;3.706;2024-02-23T10:31:25;18.50;81.50
56046;DHT22;41913;51.030;3.706;2024-02-23T10:33:52;18.50;81.40
56046;DHT22;41913;51.030;3.706;2024-02-23T10:36:19;18.50;81.50
56046;DHT22;41913;51.030;3.706;2024-02-23T10:38:48;18.50;81.50
56046;DHT22;41913;51.030;3.706;2024-02-23T10:41:17;18.50;81.40
56046;DHT22;41913;51.030;3.706;2024-02-23T10:43:48;18.40;81.30
56046;DHT22;41913;51.030;3.706;2024-02-23T10:46:14;18.50;81.20
56046;DHT22;41913;51.030;3.706;2024-02-23T10:48:44;18.40;81.00
56046;DHT22;41913;51.030;3.706;2024-02-23T10:51:13;18.40;80.90
56046;DHT22;41913;51.030;3.706;2024-02-23T10:53:44;18.40;80.90
56046;DHT22;41913;51.030;3.706;2024-02-23T10:56:12;18.40;80.80
56046;DHT22;41913;51.030;3.706;2024-02-23T10:58:37;18.30;80.70
56046;DHT22;41913;51.030;3.706;2024-02-23T11:01:06;18.30;80.70
56046;DHT22;41913;51.030;3.706;2024-02-23T11:03:34;18.30;80.80
56046;DHT22;41913;51.030;3.706;2024-02-23T11:06:01;18.30;80.60
56046;DHT22;41913;51.030;3.706;2024-02-23T11:08:32;18.30;80.70
56046;DHT22;41913;51.030;3.706;2024-02-23T11:11:07;18.30;80.60
56046;DHT22;41913;51.030;3.706;2024-02-23T11:13:37;18.30;80.60
56046;DHT22;41913;51.030;3.706;2024-02-23T11:16:07;18.30;80.50
56046;DHT22;41913;51.030;3.706;2024-02-23T11:18:35;18.30;80.60
56046;DHT22;41913;51.030;3.706;2024-02-23T11:21:03;18.20;80.50
56046;DHT22;41913;51.030;3.706;2024-02-23T11:23:49;18.20;80.50
56046;DHT22;41913;51.030;3.706;2024-02-23T11:26:18;18.20;80.40
56046;DHT22;41913;51.030;3.706;2024-02-23T11:28:47;18.20;80.60
56046;DHT22;41913;51.030;3.706;2024-02-23T11:31:15;18.20;80.60
56046;DHT22;41913;51.030;3.706;2024-02-23T11:33:54;18.20;80.60
56046;DHT22;41913;51.030;3.706;2024-02-23T11:36:32;18.10;80.40
56046;DHT22;41913;51.030;3.706;2024-02-23T11:38:59;18.10;80.50
56046;DHT22;41913;51.030;3.706;2024-02-23T11:41:26;18.10;80.50
56046;DHT22;41913;51.030;3.706;2024-02-23T11:43:53;18.10;80.60
56046;DHT22;41913;51.030;3.706;2024-02-23T11:46:21;18.10;80.60
56046;DHT22;41913;51.030;3.706;2024-02-23T11:48:48;18.10;80.60
56046;DHT22;41913;51.030;3.706;2024-02-23T11:51:19;18.10;80.70
56046;DHT22;41913;51.030;3.706;2024-02-23T11:53:47;18.10;80.70
56046;DHT22;41913;51.030;3.706;2024-02-23T11:56:13;18.00;80.70
56046;DHT22;41913;51.030;3.706;2024-02-23T11:58:42;18.00;80.80
56046;DHT22;41913;51.030;3.706;2024-02-23T12:01:08;18.00;80.80
56046;DHT22;41913;51.030;3.706;2024-02-23T12:03:34;18.00;80.70
56046;DHT22;41913;51.030;3.706;2024-02-23T12:06:01;18.00;80.60
56046;DHT22;41913;51.030;3.706;2024-02-23T12:08:29;17.90;80.60
56046;DHT22;41913;51.030;3.706;2024-02-23T12:10:57;18.00;80.70
56046;DHT22;41913;51.030;3.706;2024-02-23T12:13:26;17.90;80.90
56046;DHT22;41913;51.030;3.706;2024-02-23T12:15:55;17.90;80.80
56046;DHT22;41913;51.030;3.706;2024-02-23T12:18:22;17.90;80.90
56046;DHT22;41913;51.030;3.706;2024-02-23T12:21:05;17.90;81.00
56046;DHT22;41913;51.030;3.706;2024-02-23T12:23:41;17.90;81.00
56046;DHT22;41913;51.030;3.706;2024-02-23T12:26:09;17.90;81.00
56046;DHT22;41913;51.030;3.706;2024-02-23T12:28:36;17.90;81.10
56046;DHT22;41913;51.030;3.706;2024-02-23T12:31:03;17.90;81.30
56046;DHT22;41913;51.030;3.706;2024-02-23T12:33:31;17.80;81.10
56046;DHT22;41913;51.030;3.706;2024-02-23T12:36:01;17.80;80.80
56046;DHT22;41913;51.030;3.706;2024-02-23T12:38:28;17.80;80.80
56046;DHT22;41913;51.030;3.706;2024-02-23T12:40:54;17.80;80.80
56046;DHT22;41913;51.030;3.706;2024-02-23T12:43:21;17.80;80.80
56046;DHT22;41913;51.030;3.706;2024-02-23T12:45:50;17.90;80.60
56046;DHT22;41913;51.030;3.706;2024-02-23T12:48:16;17.80;80.50
56046;DHT22;41913;51.030;3.706;2024-02-23T12:50:43;17.80;80.70
56046;DHT22;41913;51.030;3.706;2024-02-23T12:53:39;17.80;80.90
56046;DHT22;41913;51.030;3.706;2024-02-23T12:56:06;17.80;80.80
56046;DHT22;41913;51.030;3.706;2024-02-23T12:58:37;17.80;80.60
56046;DHT22;41913;51.030;3.706;2024-02-23T13:01:03;17.80;80.80
56046;DHT22;41913;51.030;3.706;2024-02-23T13:03:29;17.80;80.80
56046;DHT22;41913;51.030;3.706;2024-02-23T13:05:59;17.80;80.80
56046;DHT22;41913;51.030;3.706;2024-02-23T13:08:25;17.70;80.70
56046;DHT22;41913;51.030;3.706;2024-02-23T13:10:53;17.80;80.80
56046;DHT22;41913;51.030;3.706;2024-02-23T13:13:19;17.70;80.90
56046;DHT22;41913;51.030;3.706;2024-02-23T13:15:46;17.70;80.90
56046;DHT22;41913;51.030;3.706;2024-02-23T13:18:12;17.70;81.10
56046;DHT22;41913;51.030;3.706;2024-02-23T13:20:38;17.70;81.30
56046;DHT22;41913;51.030;3.706;2024-02-23T13:23:05;17.70;81.40
56046;DHT22;41913;51.030;3.706;2024-02-23T13:25:34;17.70;81.50
56046;DHT22;41913;51.030;3.706;2024-02-23T13:28:00;17.70;81.70
56046;DHT22;41913;51.030;3.706;2024-02-23T13:30:26;17.60;81.70
56046;DHT22;41913;51.030;3.706;2024-02-23T13:32:53;17.60;81.60
56046;DHT22;41913;51.030;3.706;2024-02-23T13:35:19;17.60;81.80
56046;DHT22;41913;51.030;3.706;2024-02-23T13:37:45;17.60;81.60
56046;DHT22;41913;51.030;3.706;2024-02-23T13:40:11;17.60;81.70
56046;DHT22;41913;51.030;3.706;2024-02-23T13:42:37;17.60;81.90
56046;DHT22;41913;51.030;3.706;2024-02-23T13:45:06;17.60;81.70
56046;DHT22;41913;51.030;3.706;2024-02-23T13:47:32;17.60;81.60
56046;DHT22;41913;51.030;3.706;2024-02-23T13:49:58;17.60;81.90
56046;DHT22;41913;51.030;3.706;2024-02-23T13:52:26;17.60;82.00
56046;DHT22;41913;51.030;3.706;2024-02-23T13:54:52;17.60;82.00
56046;DHT22;41913;51.030;3.706;2024-02-23T13:57:18;17.60;81.70
56046;DHT22;41913;51.030;3.706;2024-02-23T14:03:06;17.60;82.10
56046;DHT22;41913;51.030;3.706;2024-02-23T14:05:32;17.60;81.90
56046;DHT22;41913;51.030;3.706;2024-02-23T14:07:57;17.60;81.90
56046;DHT22;41913;51.030;3.706;2024-02-23T14:10:23;17.60;81.90
56046;DHT22;41913;51.030;3.706;2024-02-23T14:12:49;17.60;81.90
56046;DHT22;41913;51.030;3.706;2024-02-23T14:15:17;17.60;81.90
56046;DHT22;41913;51.030;3.706;2024-02-23T14:17:43;17.60;82.00
56046;DHT22;41913;51.030;3.706;2024-02-23T14:20:09;17.60;81.80
56046;DHT22;41913;51.030;3.706;2024-02-23T14:22:35;17.60;81.60
56046;DHT22;41913;51.030;3.706;2024-02-23T14:25:01;17.60;81.50
56046;DHT22;41913;51.030;3.706;2024-02-23T14:27:27;17.60;81.60
56046;DHT22;41913;51.030;3.706;2024-02-23T14:29:53;17.60;81.60
56046;DHT22;41913;51.030;3.706;2024-02-23T14:32:19;17.60;81.40
56046;DHT22;41913;51.030;3.706;2024-02-23T14:34:45;17.60;81.30
56046;DHT22;41913;51.030;3.706;2024-02-23T14:37:11;17.60;81.20
56046;DHT22;41913;51.030;3.706;2024-02-23T14:39:37;17.50;81.40
56046;DHT22;41913;51.030;3.706;2024-02-23T14:42:03;17.50;81.50
56046;DHT22;41913;51.030;3.706;2024-02-23T14:44:30;17.60;81.60
56046;DHT22;41913;51.030;3.706;2024-02-23T14:46:56;17.50;81.60
56046;DHT22;41913;51.030;3.706;2024-02-23T14:49:22;17.50;81.70
56046;DHT22;41913;51.030;3.706;2024-02-23T14:51:48;17.50;81.80
56046;DHT22;41913;51.030;3.706;2024-02-23T14:54:14;17.50;82.00
56046;DHT22;41913;51.030;3.706;2024-02-23T14:56:40;17.50;82.00
56046;DHT22;41913;51.030;3.706;2024-02-23T14:59:07;17.50;82.00
56046;DHT22;41913;51.030;3.706;2024-02-23T15:01:39;17.50;82.10
56046;DHT22;41913;51.030;3.706;2024-02-23T15:04:08;17.50;82.30
56046;DHT22;41913;51.030;3.706;2024-02-23T15:06:34;17.50;82.60
56046;DHT22;41913;51.030;3.706;2024-02-23T15:09:03;17.50;82.40
56046;DHT22;41913;51.030;3.706;2024-02-23T15:11:29;17.50;82.60
56046;DHT22;41913;51.030;3.706;2024-02-23T15:13:55;17.40;82.60
56046;DHT22;41913;51.030;3.706;2024-02-23T15:16:24;17.40;82.70
56046;DHT22;41913;51.030;3.706;2024-02-23T15:18:50;17.50;82.70
56046;DHT22;41913;51.030;3.706;2024-02-23T15:21:17;17.50;82.80
56046;DHT22;41913;51.030;3.706;2024-02-23T15:23:44;17.50;82.80
56046;DHT22;41913;51.030;3.706;2024-02-23T15:26:10;17.50;82.90
56046;DHT22;41913;51.030;3.706;2024-02-23T15:28:39;17.50;82.90
56046;DHT22;41913;51.030;3.706;2024-02-23T15:31:05;17.50;82.80